createdAt,value
2018-12-05T00:02:17.112Z,80.58
2018-12-05T00:04:44.510Z,80.67
2018-12-05T00:07:11.984Z,81.20
2018-12-05T00:09:39.567Z,81.47
2018-12-05T00:12:06.975Z,81.59
2018-12-05T00:14:34.388Z,81.40
2018-12-05T00:17:02.682Z,81.27
2018-12-05T00:19:30.065Z,81.48
2018-12-05T00:21:57.537Z,82.13
2018-12-05T00:24:24.934Z,82.91
2018-12-05T00:26:52.424Z,83.43
2018-12-05T00:29:19.844Z,84.03
2018-12-05T00:31:47.249Z,84.18
2018-12-05T00:34:14.639Z,83.97
2018-12-05T00:36:42.039Z,83.95
2018-12-05T00:39:09.445Z,83.97
2018-12-05T00:41:36.864Z,83.94
2018-12-05T00:44:04.352Z,83.99
2018-12-05T00:46:31.851Z,84.14
2018-12-05T00:48:59.293Z,84.08
2018-12-05T00:51:26.701Z,84.03
2018-12-05T00:53:54.131Z,84.15
2018-12-05T00:56:21.549Z,84.36
2018-12-05T00:58:48.967Z,84.49
2018-12-05T01:01:16.411Z,84.54
2018-12-05T01:03:43.816Z,84.59
2018-12-05T01:06:11.298Z,84.58
2018-12-05T01:08:38.707Z,84.41
2018-12-05T01:11:06.121Z,84.13
2018-12-05T01:13:33.540Z,83.86
2018-12-05T01:16:00.954Z,83.76
2018-12-05T01:18:28.350Z,83.61
2018-12-05T01:20:55.755Z,83.77
2018-12-05T01:23:23.165Z,84.32
2018-12-05T01:25:50.579Z,84.37
2018-12-05T01:28:17.969Z,83.99
2018-12-05T01:30:45.406Z,83.80
2018-12-05T01:33:12.854Z,83.62
2018-12-05T01:35:40.283Z,83.94
2018-12-05T01:38:07.694Z,84.45
2018-12-05T01:40:35.101Z,85.05
2018-12-05T01:43:02.512Z,85.28
2018-12-05T01:45:29.918Z,85.31
2018-12-05T01:47:57.325Z,84.94
2018-12-05T01:50:24.865Z,84.96
2018-12-05T01:52:52.294Z,84.98
2018-12-05T01:55:19.825Z,84.86
2018-12-05T01:57:47.255Z,84.68
2018-12-05T02:00:14.819Z,84.57
2018-12-05T02:02:42.229Z,84.41
2018-12-05T02:05:09.668Z,84.14
2018-12-05T02:07:37.052Z,84.00
2018-12-05T02:10:04.479Z,84.00
2018-12-05T02:12:32.291Z,84.03
2018-12-05T02:14:59.727Z,84.01
2018-12-05T02:17:27.116Z,83.94
2018-12-05T02:19:54.580Z,83.75
2018-12-05T02:22:22.019Z,83.76
2018-12-05T02:24:49.449Z,83.74
2018-12-05T02:27:17.482Z,83.91
2018-12-05T02:29:50.624Z,83.94
2018-12-05T02:32:18.043Z,83.80
2018-12-05T02:34:46.263Z,83.78
2018-12-05T02:37:14.102Z,83.62
2018-12-05T02:39:41.870Z,83.71
2018-12-05T02:42:09.413Z,83.68
2018-12-05T02:44:36.815Z,83.61
2018-12-05T02:47:04.229Z,83.76
2018-12-05T02:49:31.643Z,83.84
2018-12-05T02:51:59.071Z,84.10
2018-12-05T02:54:26.552Z,83.74
2018-12-05T02:56:54.302Z,83.42
2018-12-05T02:59:21.753Z,83.42
2018-12-05T03:01:49.196Z,83.38
2018-12-05T03:04:16.608Z,83.31
2018-12-05T03:06:44.106Z,83.35
2018-12-05T03:09:11.522Z,83.32
2018-12-05T03:11:39.516Z,83.19
2018-12-05T03:14:07.100Z,82.90
2018-12-05T03:16:34.551Z,82.73
2018-12-05T03:19:01.949Z,82.44
2018-12-05T03:21:29.367Z,82.28
2018-12-05T03:23:57.381Z,82.46
2018-12-05T03:26:24.803Z,82.40
2018-12-05T03:28:52.254Z,82.26
2018-12-05T03:31:19.657Z,82.03
2018-12-05T03:33:47.086Z,81.75
2018-12-05T03:36:14.521Z,81.73
2018-12-05T03:38:41.969Z,81.83
2018-12-05T03:41:09.376Z,81.72
2018-12-05T03:43:36.803Z,81.55
2018-12-05T03:46:04.200Z,81.55
2018-12-05T03:48:31.620Z,81.47
2018-12-05T03:51:00.043Z,81.88
2018-12-05T03:53:27.446Z,81.87
2018-12-05T03:55:54.856Z,82.06
2018-12-05T03:58:22.267Z,82.01
2018-12-05T04:00:49.664Z,81.61
2018-12-05T04:03:17.081Z,81.59
2018-12-05T04:05:44.616Z,81.31
2018-12-05T04:08:12.045Z,81.18
2018-12-05T04:10:39.472Z,81.11
2018-12-05T04:13:06.892Z,81.42
2018-12-05T04:15:34.279Z,81.66
2018-12-05T04:18:01.744Z,81.92
2018-12-05T04:20:29.576Z,81.94
2018-12-05T04:22:57.246Z,81.95
2018-12-05T04:25:25.303Z,82.22
2018-12-05T04:27:52.768Z,82.42
2018-12-05T04:30:20.225Z,82.58
2018-12-05T04:32:47.682Z,82.58
2018-12-05T04:35:15.101Z,82.53
2018-12-05T04:37:42.502Z,82.38
2018-12-05T04:40:09.940Z,82.44
2018-12-05T04:42:37.329Z,82.68
2018-12-05T04:45:04.779Z,82.57
2018-12-05T04:47:32.206Z,82.80
2018-12-05T04:50:00.390Z,82.38
2018-12-05T04:52:27.801Z,82.11
2018-12-05T04:54:55.214Z,82.36
2018-12-05T04:57:22.653Z,82.45
2018-12-05T04:59:50.108Z,82.50
2018-12-05T05:02:17.547Z,82.40
2018-12-05T05:04:44.959Z,82.52
2018-12-05T05:07:12.403Z,82.58
2018-12-05T05:09:39.989Z,83.16
2018-12-05T05:12:07.427Z,83.49
2018-12-05T05:14:34.844Z,83.71
2018-12-05T05:17:02.242Z,83.71
2018-12-05T05:19:29.654Z,83.63
2018-12-05T05:21:57.090Z,83.69
2018-12-05T05:24:24.488Z,83.54
2018-12-05T05:26:53.007Z,83.51
2018-12-05T05:29:20.416Z,83.20
2018-12-05T05:31:48.774Z,83.17
2018-12-05T05:34:16.173Z,82.72
2018-12-05T05:36:43.609Z,82.85
2018-12-05T05:39:11.008Z,83.10
2018-12-05T05:41:38.415Z,82.94
2018-12-05T05:44:05.864Z,82.96
2018-12-05T05:46:33.276Z,82.91
2018-12-05T05:49:00.713Z,83.07
2018-12-05T05:51:28.141Z,83.68
2018-12-05T05:53:55.556Z,84.04
2018-12-05T05:56:22.952Z,84.52
2018-12-05T05:58:50.392Z,85.03
2018-12-05T06:01:17.864Z,85.56
2018-12-05T06:03:45.274Z,85.91
2018-12-05T06:06:12.689Z,85.78
2018-12-05T06:08:40.537Z,85.98
2018-12-05T06:11:08.056Z,86.12
2018-12-05T06:13:35.460Z,86.01
2018-12-05T06:16:02.903Z,85.77
2018-12-05T06:18:30.309Z,85.67
2018-12-05T06:20:57.719Z,85.28
2018-12-05T06:23:25.159Z,85.27
2018-12-05T06:25:52.587Z,85.53
2018-12-05T06:28:19.993Z,85.50
2018-12-05T06:30:47.393Z,85.40
2018-12-05T06:33:14.828Z,84.88
2018-12-05T06:35:42.253Z,84.42
2018-12-05T06:38:09.673Z,84.05
2018-12-05T06:40:37.107Z,83.81
2018-12-05T06:43:04.616Z,83.12
2018-12-05T06:45:32.025Z,82.97
2018-12-05T06:48:00.347Z,83.01
2018-12-05T06:50:27.957Z,82.96
2018-12-05T06:52:55.514Z,82.98
2018-12-05T06:55:22.955Z,82.87
2018-12-05T06:57:50.428Z,83.38
2018-12-05T07:00:17.838Z,83.51
2018-12-05T07:02:45.269Z,83.18
2018-12-05T07:05:12.696Z,83.15
2018-12-05T07:07:40.172Z,83.26
2018-12-05T07:10:07.593Z,82.89
2018-12-05T07:12:34.987Z,83.09
2018-12-05T07:15:02.397Z,83.21
2018-12-05T07:17:29.884Z,83.07
2018-12-05T07:19:57.324Z,83.06
2018-12-05T07:22:24.719Z,83.06
2018-12-05T07:24:52.167Z,82.83
2018-12-05T07:27:19.575Z,82.84
2018-12-05T07:29:47.154Z,83.25
2018-12-05T07:32:14.857Z,82.97
2018-12-05T07:34:42.279Z,82.56
2018-12-05T07:37:09.788Z,82.72
2018-12-05T07:39:37.191Z,83.06
2018-12-05T07:42:04.611Z,83.04
2018-12-05T07:44:32.019Z,82.91
2018-12-05T07:46:59.553Z,83.07
2018-12-05T07:49:26.994Z,83.13
2018-12-05T07:51:54.415Z,83.13
2018-12-05T07:54:21.826Z,82.70
2018-12-05T07:56:49.259Z,82.41
2018-12-05T07:59:16.679Z,82.56
2018-12-05T08:01:44.139Z,82.72
2018-12-05T08:04:11.614Z,82.80
2018-12-05T08:06:39.006Z,82.43
2018-12-05T08:09:06.409Z,82.52
2018-12-05T08:11:34.293Z,82.42
2018-12-05T08:14:01.691Z,82.01
2018-12-05T08:16:29.279Z,81.71
2018-12-05T08:18:56.667Z,81.68
2018-12-05T08:21:24.234Z,81.61
2018-12-05T08:23:51.642Z,81.54
2018-12-05T08:26:19.110Z,81.47
2018-12-05T08:28:46.525Z,81.18
2018-12-05T08:31:14.020Z,80.82
2018-12-05T08:33:41.439Z,80.98
2018-12-05T08:36:09.003Z,80.83
2018-12-05T08:38:36.422Z,80.70
2018-12-05T08:41:03.815Z,80.47
2018-12-05T08:43:31.237Z,80.25
2018-12-05T08:45:58.737Z,80.11
2018-12-05T08:48:26.140Z,80.04
2018-12-05T08:50:53.539Z,79.89
2018-12-05T08:53:20.958Z,79.43
2018-12-05T08:55:48.397Z,79.19
2018-12-05T08:58:15.804Z,79.49
2018-12-05T09:00:43.209Z,79.20
2018-12-05T09:03:10.762Z,79.06
2018-12-05T09:05:38.152Z,79.27
2018-12-05T09:08:05.563Z,79.07
2018-12-05T09:10:33.008Z,78.59
2018-12-05T09:13:00.416Z,78.24
2018-12-05T09:15:27.850Z,78.06
2018-12-05T09:17:55.254Z,78.10
2018-12-05T09:20:22.679Z,78.57
2018-12-05T09:22:50.211Z,79.50
2018-12-05T09:25:17.636Z,79.84
2018-12-05T09:27:45.065Z,79.48
2018-12-05T09:30:12.580Z,79.11
2018-12-05T09:32:40.050Z,78.74
2018-12-05T09:35:07.699Z,78.64
2018-12-05T09:37:35.154Z,78.67
2018-12-05T09:40:02.594Z,78.81
2018-12-05T09:42:30.100Z,78.82
2018-12-05T09:44:57.536Z,78.76
2018-12-05T09:47:24.941Z,78.78
2018-12-05T09:49:52.363Z,79.24
2018-12-05T09:52:19.853Z,79.32
2018-12-05T09:54:47.283Z,79.38
2018-12-05T09:57:14.817Z,79.12
2018-12-05T09:59:42.285Z,78.94
2018-12-05T10:02:09.712Z,78.72
2018-12-05T10:04:37.146Z,78.96
2018-12-05T10:07:04.669Z,79.28
2018-12-05T10:09:32.099Z,78.97
2018-12-05T10:12:00.017Z,78.60
2018-12-05T10:14:27.459Z,78.36
2018-12-05T10:16:54.861Z,77.92
2018-12-05T10:19:22.276Z,77.63
2018-12-05T10:21:49.792Z,77.59
2018-12-05T10:24:17.259Z,77.35
2018-12-05T10:26:45.399Z,77.31
2018-12-05T10:29:12.890Z,77.01
2018-12-05T10:31:44.080Z,76.96
2018-12-05T10:34:08.222Z,76.91
2018-12-05T10:36:35.759Z,76.54
2018-12-05T10:39:03.169Z,76.39
2018-12-05T10:41:30.594Z,76.68
2018-12-05T10:43:58.906Z,76.49
2018-12-05T10:46:26.314Z,76.30
2018-12-05T10:48:53.725Z,76.38
2018-12-05T10:51:21.184Z,76.79
2018-12-05T10:53:48.641Z,76.71
2018-12-05T10:56:16.110Z,76.78
2018-12-05T10:58:43.513Z,76.83
2018-12-05T11:01:16.610Z,76.82
2018-12-05T11:03:44.032Z,76.62
2018-12-05T11:06:15.309Z,76.52
2018-12-05T11:11:42.334Z,76.48
2018-12-05T11:14:15.454Z,76.67
2018-12-05T11:16:45.150Z,76.99
2018-12-05T11:19:18.278Z,77.04
2018-12-05T11:21:51.335Z,76.46
2018-12-05T11:24:33.678Z,76.41
2018-12-05T11:27:01.127Z,75.93
2018-12-05T11:29:28.556Z,76.12
2018-12-05T11:31:55.977Z,76.21
2018-12-05T11:34:23.429Z,76.09
2018-12-05T11:36:50.850Z,75.65
2018-12-05T11:39:19.046Z,75.67
2018-12-05T11:41:46.975Z,75.94
2018-12-05T11:44:14.429Z,76.23
2018-12-05T11:46:42.853Z,76.18
2018-12-05T11:49:10.363Z,75.83
2018-12-05T11:51:37.855Z,76.22
2018-12-05T11:54:05.270Z,76.48
2018-12-05T11:56:32.753Z,76.43
2018-12-05T11:59:00.918Z,76.22
2018-12-05T12:01:28.320Z,76.55
2018-12-05T12:03:55.872Z,77.26
2018-12-05T12:06:23.452Z,77.05
2018-12-05T12:08:50.992Z,76.91
2018-12-05T12:11:18.407Z,77.37
2018-12-05T12:13:45.845Z,77.33
2018-12-05T12:16:13.348Z,77.28
2018-12-05T12:18:40.795Z,77.17
2018-12-05T12:21:08.237Z,77.49
2018-12-05T12:23:35.634Z,77.37
2018-12-05T12:26:03.119Z,76.92
2018-12-05T12:28:30.673Z,76.66
2018-12-05T12:30:58.087Z,76.56
2018-12-05T12:33:25.483Z,76.61
2018-12-05T12:35:52.952Z,76.57
2018-12-05T12:38:20.455Z,76.83
2018-12-05T12:40:48.465Z,76.69
2018-12-05T12:43:15.923Z,76.48
2018-12-05T12:45:43.456Z,76.63
2018-12-05T12:48:10.842Z,76.43
2018-12-05T12:50:38.279Z,76.16
2018-12-05T12:53:05.691Z,76.35
2018-12-05T12:55:33.095Z,76.03
2018-12-05T12:58:00.561Z,75.89
2018-12-05T13:00:28.019Z,75.62
2018-12-05T13:02:55.492Z,75.50
2018-12-05T13:05:23.016Z,75.24
2018-12-05T13:07:50.455Z,74.96
2018-12-05T13:10:17.893Z,75.05
2018-12-05T13:12:45.299Z,75.17
2018-12-05T13:15:12.743Z,74.90
2018-12-05T13:17:40.170Z,74.55
2018-12-05T13:20:07.670Z,74.70
2018-12-05T13:22:35.088Z,74.99
2018-12-05T13:25:02.583Z,74.88
2018-12-05T13:27:30.017Z,74.50
2018-12-05T13:29:57.439Z,74.19
2018-12-05T13:32:24.871Z,74.73
2018-12-05T13:34:52.308Z,74.70
2018-12-05T13:37:19.853Z,74.22
2018-12-05T13:42:20.994Z,74.22
2018-12-05T13:44:48.488Z,73.97
2018-12-05T13:47:15.929Z,73.98
2018-12-05T13:49:43.388Z,73.94
2018-12-05T13:52:10.819Z,73.91
2018-12-05T13:54:38.248Z,73.74
2018-12-05T13:57:05.656Z,73.47
2018-12-05T13:59:33.117Z,73.20
2018-12-05T14:02:00.549Z,73.26
2018-12-05T14:04:28.006Z,73.21
2018-12-05T14:06:56.967Z,73.26
2018-12-05T14:09:24.382Z,73.42
2018-12-05T14:11:51.829Z,73.17
2018-12-05T14:14:19.249Z,73.42
2018-12-05T14:16:46.651Z,73.87
2018-12-05T14:19:14.081Z,73.82
2018-12-05T14:21:41.494Z,73.95
2018-12-05T14:24:09.060Z,74.12
2018-12-05T14:26:36.599Z,74.15
2018-12-05T14:29:04.046Z,74.45
2018-12-05T14:31:31.492Z,74.37
2018-12-05T14:33:58.920Z,74.08
2018-12-05T14:36:26.405Z,74.18
2018-12-05T14:38:53.803Z,73.91
2018-12-05T14:41:21.220Z,74.01
2018-12-05T14:43:48.681Z,74.25
2018-12-05T14:46:16.098Z,74.20
2018-12-05T14:48:43.494Z,74.54
2018-12-05T14:51:10.924Z,74.41
2018-12-05T14:53:38.428Z,74.25
2018-12-05T14:56:05.964Z,74.17
2018-12-05T14:58:33.406Z,74.74
2018-12-05T15:01:00.808Z,74.77
2018-12-05T15:03:28.225Z,74.97
2018-12-05T15:05:55.650Z,74.94
2018-12-05T15:08:23.331Z,75.30
2018-12-05T15:10:50.840Z,75.58
2018-12-05T15:13:18.302Z,75.87
2018-12-05T15:15:45.775Z,75.83
2018-12-05T15:18:13.212Z,75.81
2018-12-05T15:20:40.744Z,75.92
2018-12-05T15:23:08.163Z,75.88
2018-12-05T15:25:35.584Z,75.87
2018-12-05T15:28:03.088Z,75.81
2018-12-05T15:30:30.571Z,75.76
2018-12-05T15:32:58.112Z,75.87
2018-12-05T15:35:25.540Z,75.69
2018-12-05T15:37:52.943Z,75.66
2018-12-05T15:40:20.455Z,75.62
2018-12-05T15:42:47.872Z,75.72
2018-12-05T15:45:21.475Z,76.03
2018-12-05T15:47:42.813Z,76.49
2018-12-05T15:50:10.515Z,76.70
2018-12-05T15:52:37.906Z,76.32
2018-12-05T15:55:05.350Z,76.32
2018-12-05T15:57:32.762Z,76.38
2018-12-05T16:00:00.172Z,76.38
2018-12-05T16:02:27.663Z,76.28
2018-12-05T16:04:55.082Z,76.32
2018-12-05T16:07:22.888Z,76.44
2018-12-05T16:09:50.538Z,76.46
2018-12-05T16:12:18.430Z,76.79
2018-12-05T16:14:46.633Z,76.72
2018-12-05T16:17:14.566Z,76.89
2018-12-05T16:19:41.974Z,76.72
2018-12-05T16:22:09.386Z,76.55
2018-12-05T16:24:36.833Z,76.65
2018-12-05T16:27:04.283Z,76.67
2018-12-05T16:29:31.720Z,76.81
2018-12-05T16:31:59.157Z,76.55
2018-12-05T16:34:26.595Z,76.82
2018-12-05T16:36:54.024Z,77.29
2018-12-05T16:39:21.431Z,77.20
2018-12-05T16:41:48.859Z,77.12
2018-12-05T16:44:16.308Z,77.01
2018-12-05T16:46:43.733Z,76.94
2018-12-05T16:49:11.282Z,77.09
2018-12-05T16:51:38.707Z,77.04
2018-12-05T16:54:06.126Z,76.87
2018-12-05T16:56:33.542Z,77.03
2018-12-05T16:59:00.969Z,76.87
2018-12-05T17:01:28.401Z,76.91
2018-12-05T17:03:55.901Z,77.32
2018-12-05T17:06:24.073Z,77.56
2018-12-05T17:08:52.418Z,77.51
2018-12-05T17:11:19.829Z,77.50
2018-12-05T17:13:47.253Z,78.02
2018-12-05T17:16:18.051Z,77.65
2018-12-05T17:18:42.285Z,77.86
2018-12-05T17:21:10.667Z,77.60
2018-12-05T17:23:37.366Z,77.34
2018-12-05T17:26:04.881Z,77.85
2018-12-05T17:28:32.361Z,77.55
2018-12-05T17:30:59.968Z,77.55
2018-12-05T17:33:27.400Z,78.39
2018-12-05T17:35:54.888Z,78.65
2018-12-05T17:38:22.450Z,78.24
2018-12-05T17:40:49.990Z,78.13
2018-12-05T17:43:17.387Z,78.04
2018-12-05T17:45:44.804Z,77.74
2018-12-05T17:48:12.475Z,77.98
2018-12-05T17:50:39.946Z,77.88
2018-12-05T17:53:07.478Z,78.03
2018-12-05T17:55:34.895Z,78.20
2018-12-05T17:58:02.365Z,78.49
2018-12-05T18:00:30.471Z,78.63
2018-12-05T18:02:57.886Z,78.45
2018-12-05T18:05:25.385Z,78.51
2018-12-05T18:07:52.971Z,78.47
2018-12-05T18:10:20.471Z,78.44
2018-12-05T18:12:47.881Z,78.44
2018-12-05T18:15:15.294Z,78.38
2018-12-05T18:17:43.648Z,78.06
2018-12-05T18:20:11.047Z,78.42
2018-12-05T18:22:38.800Z,78.61
2018-12-05T18:25:06.233Z,78.57
2018-12-05T18:27:33.681Z,78.49
2018-12-05T18:30:01.144Z,78.77
2018-12-05T18:32:28.550Z,78.80
2018-12-05T18:34:55.967Z,78.77
2018-12-05T18:37:23.364Z,79.05
2018-12-05T18:39:50.776Z,79.42
2018-12-05T18:42:18.665Z,79.52
2018-12-05T18:44:46.084Z,79.68
2018-12-05T18:47:13.499Z,79.30
2018-12-05T18:49:40.930Z,79.26
2018-12-05T18:52:08.481Z,79.16
2018-12-05T18:54:35.901Z,79.29
2018-12-05T18:57:09.374Z,80.33
2018-12-05T18:59:30.736Z,80.80
2018-12-05T19:01:58.160Z,81.17
2018-12-05T19:04:25.586Z,81.16
2018-12-05T19:06:53.004Z,80.96
2018-12-05T19:09:26.886Z,80.43
2018-12-05T19:11:47.852Z,80.46
2018-12-05T19:14:21.035Z,80.47
2018-12-05T19:16:48.439Z,80.54
2018-12-05T19:19:16.178Z,81.41
2018-12-05T19:21:43.693Z,81.66
2018-12-05T19:24:11.150Z,81.11
2018-12-05T19:26:38.661Z,80.82
2018-12-05T19:29:06.117Z,80.43
2018-12-05T19:31:33.546Z,80.36
2018-12-05T19:34:01.236Z,80.36
2018-12-05T19:36:30.037Z,80.32
2018-12-05T19:38:57.464Z,80.45
2018-12-05T19:41:24.865Z,80.38
2018-12-05T19:43:52.370Z,80.16
2018-12-05T19:46:19.798Z,80.11
2018-12-05T19:48:47.221Z,80.03
2018-12-05T19:51:14.656Z,80.19
2018-12-05T19:53:42.115Z,80.30
2018-12-05T19:56:09.731Z,80.59
2018-12-05T19:58:37.168Z,80.67
2018-12-05T20:01:05.016Z,80.99
2018-12-05T20:03:32.846Z,80.92
2018-12-05T20:06:00.273Z,80.65
2018-12-05T20:08:27.691Z,80.61
2018-12-05T20:10:55.203Z,80.62
2018-12-05T20:13:23.502Z,80.64
2018-12-05T20:15:51.130Z,80.62
2018-12-05T20:18:18.584Z,80.76
2018-12-05T20:20:46.037Z,80.83
2018-12-05T20:23:13.452Z,80.63
2018-12-05T20:25:40.878Z,80.95
2018-12-05T20:28:08.317Z,80.96
2018-12-05T20:30:35.763Z,80.82
2018-12-05T20:33:03.199Z,80.79
2018-12-05T20:35:30.609Z,80.70
2018-12-05T20:37:58.024Z,80.63
2018-12-05T20:40:25.428Z,80.70
2018-12-05T20:42:52.828Z,80.70
2018-12-05T20:45:20.309Z,80.58
2018-12-05T20:47:47.871Z,80.36
2018-12-05T20:50:15.284Z,80.41
2018-12-05T20:52:42.706Z,80.53
2018-12-05T20:55:10.188Z,80.77
2018-12-05T20:57:37.656Z,81.01
2018-12-05T21:00:06.167Z,81.04
2018-12-05T21:02:33.682Z,81.39
2018-12-05T21:05:01.807Z,82.06
2018-12-05T21:07:29.249Z,82.12
2018-12-05T21:09:56.678Z,82.06
2018-12-05T21:12:24.125Z,82.07
2018-12-05T21:14:51.637Z,81.86
2018-12-05T21:17:19.044Z,81.89
2018-12-05T21:19:46.506Z,81.67
2018-12-05T21:22:14.063Z,81.69
2018-12-05T21:24:41.492Z,81.70
2018-12-05T21:27:09.618Z,81.56
2018-12-05T21:29:37.020Z,81.63
2018-12-05T21:32:04.856Z,81.50
2018-12-05T21:34:32.304Z,81.42
2018-12-05T21:36:59.719Z,81.30
2018-12-05T21:39:27.161Z,81.50
2018-12-05T21:41:54.568Z,81.72
2018-12-05T21:44:21.978Z,81.70
2018-12-05T21:46:49.385Z,81.76
2018-12-05T21:49:17.106Z,81.84
2018-12-05T21:51:44.511Z,81.66
2018-12-05T21:54:11.935Z,81.47
2018-12-05T21:56:39.408Z,81.44
2018-12-05T21:59:06.835Z,81.33
2018-12-05T22:01:34.304Z,81.29
2018-12-05T22:04:01.722Z,81.43
2018-12-05T22:06:29.145Z,81.29
2018-12-05T22:08:56.560Z,81.71
2018-12-05T22:11:24.040Z,82.05
2018-12-05T22:13:51.476Z,82.46
2018-12-05T22:16:18.934Z,82.63
2018-12-05T22:18:46.362Z,82.60
2018-12-05T22:21:13.774Z,82.60
2018-12-05T22:23:41.189Z,82.31
2018-12-05T22:26:08.746Z,82.38
2018-12-05T22:28:36.151Z,82.79
2018-12-05T22:31:03.564Z,82.71
2018-12-05T22:33:30.979Z,82.94
2018-12-05T22:35:58.421Z,83.11
2018-12-05T22:38:25.838Z,83.41
2018-12-05T22:40:53.244Z,83.69
2018-12-05T22:43:20.663Z,83.96
2018-12-05T22:45:48.074Z,84.12
2018-12-05T22:48:15.523Z,83.97
2018-12-05T22:50:42.936Z,83.98
2018-12-05T22:53:10.362Z,84.75
2018-12-05T22:55:37.789Z,84.87
2018-12-05T22:58:05.198Z,84.59
2018-12-05T23:00:32.647Z,84.71
2018-12-05T23:03:00.242Z,84.80
2018-12-05T23:05:27.675Z,84.64
2018-12-05T23:07:55.098Z,84.75
2018-12-05T23:10:22.516Z,85.18
2018-12-05T23:12:49.983Z,85.11
2018-12-05T23:15:17.391Z,85.04
2018-12-05T23:17:45.460Z,84.86
2018-12-05T23:20:12.889Z,85.19
2018-12-05T23:22:41.228Z,85.65
2018-12-05T23:25:08.666Z,85.84
2018-12-05T23:27:36.155Z,85.68
2018-12-05T23:30:03.563Z,85.65
2018-12-05T23:32:31.013Z,85.33
2018-12-05T23:34:58.611Z,85.20
2018-12-05T23:37:26.007Z,85.12
2018-12-05T23:39:53.454Z,85.31
2018-12-05T23:42:20.869Z,85.66
2018-12-05T23:44:48.277Z,85.56
2018-12-05T23:47:15.711Z,85.62
2018-12-05T23:49:43.119Z,85.60
2018-12-05T23:52:10.548Z,85.51
2018-12-05T23:54:37.958Z,85.20
2018-12-05T23:57:05.373Z,84.82
2018-12-05T23:59:33.662Z,85.05
